Terminal Aerodrome Forecast
Issued by NWS

Home | Current Version | Previous Version | Text Only | Print | Product List | Glossary On
Versions: 1 2 3 4 5 6 7 8 9 10 11 12 13 14 15
000
FTUS43 KLSX 132322
TAFSUS
TAF
KSUS 132322Z 1400/1424 31014G22KT P6SM FEW050
     FM140200 32014KT P6SM BKN060
     FM140400 32012KT P6SM BKN025
     FM141200 34008KT P6SM SCT030
     FM141400 33005KT P6SM SCT070=

USA.gov is the U.S. government's official web portal to all federal, state and local government web resources and services.